Time;durP1;ratioP1;P1;durP2;ratioP2;P2;SDS_P1;SDS_P2;PMS_P1;PMS_P2;Temp;Humidity;BMP_temperature;BMP_pressure;BME280_temperature;BME280_humidity;BME280_pressure;Samples;Min_cycle;Max_cycle;Signal;HPM_P1;HPM_P2
2023/05/10 00:00:35;;;;;;;5.32;3.00;;;12.70;90.50;;;12.50;61.93;99936.09;5053150;28;20063;-77
2023/05/10 00:03:00;;;;;;;7.65;3.20;;;12.70;91.60;;;12.41;62.24;99941.16;5054073;28;20400;-77
2023/05/10 00:05:26;;;;;;;6.45;3.30;;;12.50;91.80;;;12.30;61.56;99934.66;5053268;28;20043;-76
2023/05/10 00:07:52;;;;;;;6.82;3.50;;;12.50;91.60;;;12.29;62.05;99935.75;5077651;28;20550;-77
2023/05/10 00:10:18;;;;;;;6.63;3.47;;;12.40;91.80;;;12.26;63.16;99932.69;5053081;28;20037;-77
2023/05/10 00:12:43;;;;;;;5.72;3.22;;;12.30;92.40;;;12.18;63.64;99933.91;5058520;28;20040;-77
2023/05/10 00:15:10;;;;;;;6.15;3.40;;;12.30;92.60;;;12.05;65.44;99924.91;5052919;28;20029;-77
2023/05/10 00:17:36;;;;;;;5.28;3.22;;;12.20;93.30;;;12.04;65.24;99928.72;5062377;28;20033;-78
2023/05/10 00:20:02;;;;;;;5.45;3.20;;;12.20;93.40;;;12.05;67.10;99935.84;5051511;28;20447;-78
2023/05/10 00:22:28;;;;;;;5.28;3.28;;;12.10;94.30;;;11.93;68.77;99926.84;5052754;28;20086;-77
2023/05/10 00:24:53;;;;;;;4.63;3.03;;;12.00;95.10;;;11.74;68.74;99907.06;5063452;28;20048;-78
2023/05/10 00:27:19;;;;;;;5.45;3.20;;;11.90;95.30;;;11.74;68.01;99921.53;5056848;28;20037;-78
2023/05/10 00:29:45;;;;;;;8.48;3.40;;;11.80;95.30;;;11.63;69.12;99917.78;5051726;28;20109;-78
2023/05/10 00:32:10;;;;;;;7.40;3.50;;;11.70;95.80;;;11.66;70.38;99916.47;5052820;28;20031;-78
2023/05/10 00:34:37;;;;;;;6.07;3.40;;;11.60;96.80;;;11.55;72.89;99915.44;5053184;28;20357;-78
2023/05/10 00:37:02;;;;;;;7.47;3.97;;;11.60;98.40;;;11.48;76.24;99910.09;5051365;28;20033;-77
2023/05/10 00:39:28;;;;;;;5.55;3.47;;;11.50;99.90;;;11.41;77.15;99911.31;5085000;28;20083;-77
2023/05/10 00:41:54;;;;;;;6.47;3.72;;;11.40;99.90;;;11.33;78.64;99907.06;5052549;28;20025;-78
2023/05/10 00:44:20;;;;;;;7.53;4.00;;;11.30;99.90;;;11.22;80.63;99904.09;5069014;28;20119;-77
2023/05/10 00:46:47;;;;;;;6.47;3.95;;;11.20;99.90;;;11.14;82.01;99895.41;5053123;28;20047;-78
2023/05/10 00:49:13;;;;;;;7.72;4.03;;;11.10;99.90;;;11.17;82.06;99897.69;5052937;28;20033;-78
2023/05/10 00:51:39;;;;;;;6.68;4.00;;;11.10;99.90;;;11.18;82.62;99905.63;5051399;28;20037;-77
2023/05/10 00:54:05;;;;;;;6.78;4.00;;;11.10;99.90;;;11.09;83.70;99896.16;5052587;28;20068;-77
2023/05/10 00:56:31;;;;;;;7.20;4.28;;;11.10;99.90;;;11.12;84.28;99903.88;5051781;28;20071;-77
2023/05/10 00:58:57;;;;;;;8.88;4.53;;;11.10;99.90;;;11.05;84.00;99898.53;5034903;28;20091;-78
2023/05/10 01:01:23;;;;;;;8.40;4.80;;;11.10;99.90;;;11.13;82.15;99888.31;5040527;28;20473;-78
2023/05/10 01:03:49;;;;;;;8.30;4.68;;;11.20;99.90;;;11.25;81.52;99888.28;5052391;28;20401;-78
2023/05/10 01:06:15;;;;;;;7.97;4.75;;;11.30;99.90;;;11.36;80.42;99885.53;5052164;28;20518;-77
2023/05/10 01:08:41;;;;;;;10.95;5.13;;;11.40;99.90;;;11.37;80.57;99881.72;5050471;28;20060;-77
2023/05/10 01:11:06;;;;;;;8.60;5.07;;;11.50;99.90;;;11.36;81.13;99882.81;5052190;28;20033;-77
2023/05/10 01:13:37;;;;;;;13.30;5.38;;;11.50;99.90;;;11.25;81.96;99878.22;5052600;28;20036;-77
2023/05/10 01:16:04;;;;;;;8.07;5.10;;;11.50;99.90;;;11.30;82.09;99889.25;5052665;28;20536;-77
2023/05/10 01:18:36;;;;;;;10.63;5.55;;;11.50;99.90;;;11.20;83.03;99869.91;5051269;28;20036;-77
2023/05/10 01:21:18;;;;;;;9.50;5.38;;;11.40;99.90;;;11.26;84.20;99882.59;5049124;28;20063;-77
2023/05/10 01:24:23;;;;;;;9.20;5.80;;;11.40;99.90;;;11.15;85.11;99883.47;5083845;28;20051;-77
2023/05/10 01:27:23;;;;;;;13.60;5.60;;;11.30;99.90;;;11.09;85.41;99885.25;5051573;28;20051;-77
2023/05/10 01:30:49;;;;;;;9.45;5.43;;;11.20;99.90;;;11.07;86.11;99893.66;5061156;28;20373;-77
2023/05/10 01:33:30;;;;;;;8.55;5.10;;;11.20;99.90;;;11.08;86.73;99891.78;5052304;28;20586;-77
2023/05/10 01:36:07;;;;;;;8.93;5.63;;;11.20;99.90;;;11.03;87.53;99886.19;5065147;28;20045;-77
2023/05/10 01:38:50;;;;;;;11.00;6.90;;;11.10;99.90;;;10.91;89.43;99897.94;5057384;28;20037;-77
2023/05/10 01:41:39;;;;;;;9.68;6.40;;;11.10;99.90;;;10.86;90.88;99899.69;5057403;28;20068;-78
2023/05/10 01:44:35;;;;;;;9.88;5.97;;;11.00;99.90;;;10.69;91.06;99885.94;5061759;28;20041;-77
2023/05/10 01:47:20;;;;;;;7.68;5.72;;;10.90;99.90;;;10.88;90.79;99892.13;5051316;28;20045;-77
2023/05/10 01:49:51;;;;;;;11.27;6.13;;;10.80;99.90;;;10.75;91.50;99896.75;5051512;28;20040;-77
2023/05/10 01:52:25;;;;;;;10.18;6.13;;;10.70;99.90;;;10.65;93.17;99901.97;5061776;28;20164;-76
2023/05/10 01:55:01;;;;;;;10.77;6.32;;;10.60;99.90;;;10.52;94.46;99891.25;5051178;28;20506;-77
2023/05/10 01:57:37;;;;;;;9.20;6.05;;;10.50;99.90;;;10.47;95.38;99894.69;5053279;28;20057;-77
2023/05/10 02:00:04;;;;;;;8.10;5.53;;;10.40;99.90;;;10.39;95.29;99898.56;5084054;28;20087;-78
2023/05/10 02:02:45;;;;;;;9.35;6.28;;;10.30;99.90;;;10.34;97.14;99901.16;5056320;28;20075;-77
2023/05/10 02:05:15;;;;;;;8.27;6.03;;;10.20;99.90;;;10.30;98.77;99899.97;5065440;28;20033;-77
2023/05/10 02:07:43;;;;;;;10.70;6.50;;;10.20;99.90;;;10.22;100.00;99899.22;5051884;28;20071;-77
2023/05/10 02:10:12;;;;;;;11.13;6.20;;;10.10;99.90;;;10.11;100.00;99894.59;5055390;28;20504;-77
2023/05/10 02:12:43;;;;;;;10.10;6.70;;;10.10;99.90;;;10.11;100.00;99900.03;5078979;28;20118;-77
2023/05/10 02:15:12;;;;;;;11.15;7.38;;;10.10;99.90;;;10.08;100.00;99898.59;5062887;28;20068;-77
2023/05/10 02:17:41;;;;;;;11.82;7.32;;;10.10;99.90;;;10.15;100.00;99898.50;5058448;28;20033;-77
2023/05/10 02:20:10;;;;;;;9.60;7.40;;;10.10;99.90;;;10.20;100.00;99898.63;5053817;28;20094;-77
2023/05/10 02:22:38;;;;;;;12.10;6.95;;;10.10;99.90;;;10.22;100.00;99892.97;5055072;28;20401;-78
2023/05/10 02:25:06;;;;;;;9.68;6.60;;;10.10;99.90;;;10.15;100.00;99895.78;5055992;28;20040;-77
2023/05/10 02:27:33;;;;;;;12.70;7.70;;;10.10;99.90;;;10.11;100.00;99900.03;5055190;28;20462;-78
2023/05/10 02:29:59;;;;;;;13.02;7.20;;;10.00;99.90;;;10.08;100.00;99898.59;5053888;28;20033;-77
2023/05/10 02:32:27;;;;;;;9.90;7.10;;;10.00;99.90;;;10.05;100.00;99906.41;5055207;28;20120;-78
2023/05/10 02:34:55;;;;;;;10.95;7.28;;;10.00;99.90;;;10.00;100.00;99900.81;5054975;28;20044;-77
2023/05/10 02:37:22;;;;;;;11.00;7.40;;;10.00;99.90;;;10.00;100.00;99890.75;5054017;28;20033;-77
2023/05/10 02:39:52;;;;;;;12.68;7.65;;;10.10;99.90;;;10.06;100.00;99894.44;5053695;28;20049;-77
2023/05/10 02:42:26;;;;;;;15.13;8.32;;;10.10;99.90;;;10.10;100.00;99895.66;5054384;28;20102;-77
2023/05/10 02:45:07;;;;;;;14.60;7.85;;;10.10;99.90;;;10.17;100.00;99892.81;5055059;28;20029;-77
2023/05/10 02:47:35;;;;;;;10.52;7.63;;;10.10;99.90;;;10.17;100.00;99890.94;5055263;28;20033;-78
2023/05/10 02:50:01;;;;;;;10.77;7.90;;;10.20;99.90;;;10.21;100.00;99894.00;5053673;28;20345;-77
2023/05/10 02:52:36;;;;;;;12.15;7.10;;;10.20;99.90;;;10.18;100.00;99886.28;5053188;28;20037;-77
2023/05/10 02:55:05;;;;;;;10.73;7.57;;;10.10;99.90;;;10.19;100.00;99894.25;5075130;28;20476;-77
2023/05/10 02:57:34;;;;;;;11.60;7.53;;;10.10;99.90;;;10.17;100.00;99893.66;5054291;28;20799;-76
2023/05/10 03:00:03;;;;;;;10.18;7.18;;;10.10;99.90;;;10.14;100.00;99894.13;5054022;28;20080;-77
2023/05/10 03:02:30;;;;;;;16.13;7.93;;;10.10;99.90;;;10.14;100.00;99888.69;5050776;28;20036;-77
2023/05/10 03:04:56;;;;;;;12.70;8.17;;;10.10;99.90;;;10.23;100.00;99894.63;5066653;28;20036;-78
2023/05/10 03:07:23;;;;;;;11.80;7.40;;;10.10;99.90;;;10.26;100.00;99887.88;5072354;28;20290;-78
2023/05/10 03:09:49;;;;;;;11.65;7.38;;;10.10;99.90;;;10.25;100.00;99881.59;5064343;28;20071;-77
2023/05/10 03:13:00;;;;;;;11.40;7.78;;;10.10;99.90;;;10.28;100.00;99885.72;5064354;28;20037;-76
2023/05/10 03:16:08;;;;;;;12.75;7.88;;;10.20;99.90;;;10.35;100.00;99884.56;5065373;28;20434;-76
2023/05/10 03:19:01;;;;;;;11.77;7.95;;;10.20;99.90;;;10.42;100.00;99876.31;5054626;28;20028;-77
2023/05/10 03:21:29;;;;;;;12.82;8.10;;;10.40;99.90;;;10.63;100.00;99877.63;5053714;28;20079;-83
2023/05/10 03:24:06;;;;;;;10.70;7.85;;;10.40;99.90;;;10.65;100.00;99874.69;5036866;28;20392;-80
2023/05/10 03:26:34;;;;;;;10.63;7.60;;;10.50;99.90;;;10.63;100.00;99885.00;5082286;28;20036;-77
2023/05/10 03:29:08;;;;;;;10.95;8.02;;;10.50;99.90;;;10.68;100.00;99887.00;5064041;28;20068;-77
2023/05/10 03:31:34;;;;;;;13.05;8.13;;;10.60;99.90;;;10.63;100.00;99887.75;5053078;28;20063;-78
2023/05/10 03:34:01;;;;;;;11.70;8.60;;;10.60;99.90;;;10.68;100.00;99893.31;5036388;28;20434;-77
2023/05/10 03:36:27;;;;;;;10.35;7.75;;;10.60;99.90;;;10.72;100.00;99889.03;5047506;28;20551;-77
2023/05/10 03:38:53;;;;;;;12.60;8.50;;;10.70;99.90;;;10.78;100.00;99895.47;5063253;28;20064;-78
2023/05/10 03:41:20;;;;;;;11.38;7.95;;;10.70;99.90;;;10.79;100.00;99892.47;5058148;28;20400;-77
2023/05/10 03:43:46;;;;;;;10.82;7.97;;;10.70;99.90;;;10.85;100.00;99892.59;5061072;28;20024;-77
2023/05/10 03:46:12;;;;;;;12.68;8.55;;;10.80;99.90;;;10.82;100.00;99901.25;5068437;28;20043;-77
2023/05/10 03:48:39;;;;;;;11.55;8.23;;;10.80;99.90;;;10.87;100.00;99894.03;5066641;28;20025;-77
2023/05/10 03:51:05;;;;;;;12.13;8.70;;;10.80;99.90;;;10.97;100.00;99900.78;5060869;28;20041;-77
2023/05/10 03:53:30;;;;;;;13.32;8.60;;;10.80;99.90;;;10.98;100.00;99906.00;5058034;28;20138;-77
2023/05/10 03:55:56;;;;;;;13.27;9.27;;;10.80;99.90;;;10.84;100.00;99899.97;5053635;28;20037;-76
2023/05/10 03:58:23;;;;;;;14.43;9.32;;;10.80;99.90;;;10.89;100.00;99897.34;5068639;28;20037;-78
2023/05/10 04:00:49;;;;;;;13.27;9.05;;;10.80;99.90;;;11.14;100.00;99901.72;5096799;27;20280;-75
2023/05/10 04:03:15;;;;;;;13.27;9.00;;;10.80;99.90;;;11.07;100.00;99903.75;5062024;28;20029;-75
2023/05/10 04:05:40;;;;;;;15.02;9.90;;;10.80;99.90;;;10.93;100.00;99903.16;5050182;28;20040;-74
2023/05/10 04:08:06;;;;;;;13.77;9.68;;;10.80;99.90;;;10.85;100.00;99906.22;5050440;28;20044;-74
2023/05/10 04:10:32;;;;;;;15.23;10.07;;;10.70;99.90;;;10.87;100.00;99910.41;5051072;28;20024;-74
2023/05/10 04:12:58;;;;;;;14.45;9.98;;;10.70;99.90;;;10.88;100.00;99908.50;5052213;28;20501;-74
2023/05/10 04:15:24;;;;;;;14.70;10.15;;;10.70;99.90;;;10.88;100.00;99911.25;5047217;28;20052;-74
2023/05/10 04:17:50;;;;;;;15.85;10.50;;;10.70;99.90;;;10.97;100.00;99919.88;5052360;28;20068;-74
2023/05/10 04:20:16;;;;;;;13.93;9.82;;;10.70;99.90;;;10.92;100.00;99921.44;5059538;28;20056;-76
2023/05/10 04:22:42;;;;;;;15.07;10.18;;;10.80;99.90;;;10.93;100.00;99920.34;5060851;28;20036;-76
2023/05/10 04:25:08;;;;;;;13.80;10.60;;;10.80;99.90;;;10.98;100.00;99918.81;5071832;28;20045;-76
2023/05/10 04:27:34;;;;;;;13.90;9.68;;;10.80;99.90;;;10.94;100.00;99921.19;5052732;28;20037;-75
2023/05/10 04:30:00;;;;;;;12.88;9.52;;;10.80;99.90;;;10.98;100.00;99913.34;5052710;28;20098;-76
2023/05/10 04:32:25;;;;;;;13.80;10.13;;;10.80;99.90;;;11.05;100.00;99920.34;5050223;28;20480;-76
2023/05/10 04:34:51;;;;;;;12.02;9.63;;;10.80;99.90;;;11.11;100.00;99931.38;5066024;28;20029;-77
2023/05/10 04:37:17;;;;;;;13.38;10.57;;;10.80;99.90;;;11.12;100.00;99922.97;5056702;28;20041;-77
2023/05/10 04:39:43;;;;;;;15.77;10.65;;;10.80;99.90;;;11.19;100.00;99931.88;5039088;28;20036;-77
2023/05/10 04:42:09;;;;;;;16.40;11.43;;;10.90;99.90;;;11.20;100.00;99906.22;5064562;28;20052;-77
2023/05/10 04:44:35;;;;;;;14.43;10.05;;;10.90;99.90;;;11.38;100.00;99926.28;5044525;28;20389;-76
2023/05/10 04:47:02;;;;;;;16.65;11.70;;;10.90;99.90;;;11.37;100.00;99925.44;5051507;28;20037;-76
2023/05/10 04:49:29;;;;;;;13.48;10.15;;;11.00;99.90;;;11.44;100.00;99919.03;5052891;28;20025;-76
2023/05/10 04:51:55;;;;;;;14.07;10.55;;;11.10;99.90;;;11.51;100.00;99922.44;5053416;28;20036;-74
2023/05/10 04:54:21;;;;;;;13.85;9.85;;;11.10;99.90;;;11.63;100.00;99925.97;5052677;28;20095;-75
2023/05/10 04:56:47;;;;;;;14.32;10.50;;;11.20;99.90;;;11.64;100.00;99927.63;5055832;28;20554;-76
2023/05/10 04:59:13;;;;;;;13.75;10.30;;;11.30;99.90;;;11.71;100.00;99934.88;5052646;28;20087;-76
2023/05/10 05:01:39;;;;;;;15.13;10.70;;;11.40;99.90;;;11.75;100.00;99941.53;5050335;28;20052;-75
2023/05/10 05:04:05;;;;;;;14.05;10.35;;;11.40;99.90;;;11.68;100.00;99949.03;5051865;28;20517;-76
2023/05/10 05:06:30;;;;;;;14.85;10.52;;;11.40;99.90;;;11.63;100.00;99956.03;5052375;28;20123;-76
2023/05/10 05:08:56;;;;;;;15.95;10.30;;;11.40;99.90;;;11.54;100.00;99957.47;5056323;28;20376;-74
2023/05/10 05:11:22;;;;;;;15.55;10.80;;;11.30;99.90;;;11.50;100.00;99965.31;5058588;28;20094;-76
2023/05/10 05:13:47;;;;;;;14.63;10.52;;;11.30;99.90;;;11.54;100.00;99971.13;5065455;28;20041;-75
2023/05/10 05:16:13;;;;;;;16.42;10.93;;;11.30;99.90;;;11.45;100.00;99978.03;5051808;28;20481;-77
2023/05/10 05:18:39;;;;;;;16.25;11.07;;;11.30;99.90;;;11.37;100.00;99984.69;5051473;28;20040;-77
2023/05/10 05:21:19;;;;;;;15.32;11.10;;;11.30;99.90;;;11.34;100.00;99975.06;5054163;28;20075;-78
2023/05/10 05:23:45;;;;;;;13.77;10.32;;;11.30;99.90;;;11.49;100.00;99979.22;5088884;28;20130;-78
2023/05/10 05:26:11;;;;;;;15.25;10.65;;;11.40;99.90;;;11.49;100.00;99981.94;5052920;28;20460;-77
2023/05/10 05:28:38;;;;;;;16.33;10.55;;;11.40;99.90;;;11.36;100.00;99983.84;5055895;28;20098;-78
2023/05/10 05:31:05;;;;;;;14.10;10.10;;;11.40;99.90;;;11.35;100.00;99986.84;5051833;28;20069;-79
2023/05/10 05:33:31;;;;;;;16.42;10.73;;;11.40;99.90;;;11.32;100.00;99990.84;5051565;28;20116;-79
2023/05/10 05:35:57;;;;;;;13.50;10.05;;;11.30;99.90;;;11.36;100.00;99993.97;5056807;28;20043;-79
2023/05/10 05:38:23;;;;;;;15.85;11.35;;;11.30;99.90;;;11.47;100.00;100003.22;5052256;28;20036;-79
2023/05/10 05:40:49;;;;;;;16.77;11.90;;;11.30;99.90;;;11.48;100.00;100005.69;5050460;28;20044;-79
2023/05/10 05:43:15;;;;;;;15.45;10.75;;;11.30;99.90;;;11.35;100.00;99993.09;5052243;28;20362;-79
2023/05/10 05:45:41;;;;;;;14.75;10.43;;;11.30;99.90;;;11.41;100.00;100013.19;5050783;28;20032;-79
2023/05/10 05:48:06;;;;;;;15.65;10.90;;;11.30;99.90;;;11.48;100.00;100007.59;5051400;28;20041;-78
2023/05/10 05:50:32;;;;;;;15.38;11.15;;;11.20;99.90;;;11.45;100.00;99978.03;5052136;28;20041;-78
2023/05/10 05:52:58;;;;;;;14.63;11.10;;;11.30;99.90;;;11.61;100.00;99993.69;5064360;28;20057;-79
2023/05/10 05:55:24;;;;;;;14.68;11.15;;;11.40;99.90;;;11.74;100.00;100019.09;5053315;28;20025;-79
2023/05/10 05:57:49;;;;;;;16.13;11.63;;;11.40;99.90;;;11.76;100.00;100016.97;5056359;28;20032;-78
2023/05/10 06:00:16;;;;;;;16.40;10.95;;;11.40;99.90;;;11.65;100.00;100022.19;5056098;28;20378;-78
2023/05/10 06:02:41;;;;;;;14.07;11.23;;;11.40;99.90;;;11.65;100.00;100033.09;5056201;28;20037;-78
2023/05/10 06:05:08;;;;;;;15.77;12.15;;;11.40;99.90;;;11.71;100.00;100035.97;5062176;28;20040;-77
2023/05/10 06:07:33;;;;;;;15.80;12.55;;;11.40;99.90;;;11.84;100.00;100032.16;5056132;28;20037;-77
2023/05/10 06:09:59;;;;;;;18.40;12.98;;;11.40;99.90;;;11.56;100.00;100025.53;5059629;28;20037;-77
2023/05/10 06:12:25;;;;;;;17.67;13.55;;;11.50;99.90;;;11.48;100.00;100013.06;5060933;28;20068;-76
2023/05/10 06:14:50;;;;;;;20.25;14.55;;;11.50;99.90;;;11.45;100.00;100033.47;5055245;28;20571;-78
2023/05/10 06:17:16;;;;;;;19.45;14.80;;;11.50;99.90;;;11.50;100.00;100039.06;5055944;28;20039;-76
2023/05/10 06:19:42;;;;;;;19.30;14.48;;;11.50;99.90;;;11.47;100.00;100028.63;5055533;28;20035;-75
2023/05/10 06:22:07;;;;;;;22.33;14.98;;;11.60;99.90;;;11.62;100.00;100047.25;5055844;28;20459;-77
2023/05/10 06:24:33;;;;;;;20.17;14.95;;;11.60;99.90;;;11.45;100.00;100040.88;5066303;28;20028;-77
2023/05/10 06:27:00;;;;;;;17.10;14.00;;;11.50;99.90;;;11.47;100.00;100044.19;5038028;28;20392;-76
2023/05/10 06:29:26;;;;;;;17.50;13.27;;;11.50;99.90;;;11.34;100.00;100035.13;5055622;28;20044;-76
2023/05/10 06:31:52;;;;;;;19.77;13.18;;;11.50;99.90;;;11.35;100.00;100042.25;5056050;28;20131;-78
2023/05/10 06:34:18;;;;;;;19.67;13.10;;;11.50;99.90;;;11.41;100.00;100024.09;5071038;28;20029;-78
2023/05/10 06:36:44;;;;;;;19.10;12.73;;;11.50;99.90;;;11.97;100.00;100042.81;5055814;28;20052;-77
2023/05/10 06:39:11;;;;;;;16.77;12.50;;;11.60;99.90;;;12.04;100.00;100053.66;5050273;28;20048;-78
2023/05/10 06:41:37;;;;;;;16.77;12.13;;;11.60;99.90;;;12.06;100.00;100057.78;5055173;28;20485;-78
2023/05/10 06:44:03;;;;;;;17.38;12.93;;;11.70;99.90;;;12.08;100.00;100061.16;5055518;28;20033;-78
2023/05/10 06:46:29;;;;;;;15.57;12.20;;;11.80;99.90;;;12.18;100.00;100065.97;5055515;28;20128;-77
2023/05/10 06:48:55;;;;;;;16.55;11.98;;;11.80;99.90;;;12.18;100.00;100060.50;5055243;28;20108;-78
2023/05/10 06:51:21;;;;;;;15.70;11.73;;;11.90;99.90;;;12.03;100.00;100068.41;5053695;28;20520;-78
2023/05/10 06:53:47;;;;;;;17.08;12.15;;;11.90;99.90;;;12.09;100.00;100072.91;5054030;28;20040;-78
2023/05/10 06:56:13;;;;;;;15.25;11.40;;;11.90;99.90;;;12.16;100.00;100076.31;5065386;28;20049;-78
2023/05/10 06:58:38;;;;;;;17.52;11.48;;;12.00;99.90;;;12.10;100.00;100068.28;5053467;28;20041;-77
2023/05/10 07:01:05;;;;;;;18.48;11.43;;;11.90;99.90;;;12.15;100.00;100077.41;5055408;28;20048;-78
2023/05/10 07:03:31;;;;;;;19.10;11.80;;;11.90;99.90;;;11.97;100.00;100066.59;5055917;28;20384;-76
2023/05/10 07:06:03;;;;;;;16.10;11.32;;;12.00;99.90;;;12.02;100.00;100077.66;5058062;28;20583;-77
2023/05/10 07:08:31;;;;;;;12.02;9.60;;;12.00;99.90;;;11.99;100.00;100084.41;5055478;28;20496;-77
2023/05/10 07:11:01;;;;;;;;;;;11.90;99.90;;;12.03;100.00;100069.22;5053345;28;20032;-77
2023/05/10 07:13:27;;;;;;;12.50;10.10;;;12.00;99.90;;;12.21;100.00;100086.53;5055024;28;19916;-77
2023/05/10 07:15:53;;;;;;;13.38;10.27;;;12.00;99.90;;;12.11;100.00;100076.22;5059089;28;20397;-78
2023/05/10 07:18:18;;;;;;;15.80;10.90;;;12.00;99.90;;;12.15;100.00;100077.41;5057009;28;20029;-78
2023/05/10 07:20:44;;;;;;;14.73;10.80;;;12.10;99.90;;;12.26;100.00;100080.34;5055009;28;20048;-77
2023/05/10 07:23:10;;;;;;;13.93;10.27;;;12.20;99.90;;;12.28;100.00;100080.94;5054938;28;20029;-77
2023/05/10 07:25:35;;;;;;;15.70;10.40;;;12.30;99.90;;;12.28;100.00;100092.69;5054770;28;20147;-76
2023/05/10 07:28:01;;;;;;;17.05;10.75;;;12.30;99.90;;;12.34;100.00;100102.69;5055119;28;20045;-76
2023/05/10 07:30:27;;;;;;;17.35;10.50;;;12.30;99.90;;;12.37;100.00;100076.75;5054540;28;20476;-77
2023/05/10 07:32:53;;;;;;;14.23;10.27;;;12.40;99.90;;;12.41;100.00;100083.38;5063358;28;20391;-76
2023/05/10 07:35:18;;;;;;;13.98;10.55;;;12.50;99.90;;;12.55;100.00;100099.53;5069630;28;20037;-76
2023/05/10 07:37:44;;;;;;;16.00;10.70;;;12.60;99.90;;;12.70;100.00;100105.28;5070336;28;20434;-76
2023/05/10 07:40:10;;;;;;;15.68;11.15;;;12.70;99.90;;;12.80;100.00;100110.97;5067918;28;20025;-76
2023/05/10 07:42:36;;;;;;;14.45;10.40;;;12.80;99.90;;;12.87;100.00;100110.84;5058228;28;20124;-77
2023/05/10 07:45:01;;;;;;;13.02;9.57;;;12.90;99.90;;;12.73;100.00;100104.81;5076244;28;20037;-76
2023/05/10 07:47:27;;;;;;;13.20;10.23;;;12.90;99.90;;;12.76;100.00;100117.16;5054294;28;20078;-76
2023/05/10 07:49:53;;;;;;;13.65;9.50;;;12.80;99.90;;;12.71;100.00;100108.88;5055628;28;20477;-77
2023/05/10 07:52:18;;;;;;;13.93;10.50;;;12.80;99.90;;;12.78;100.00;100115.03;5055525;28;20033;-76
2023/05/10 07:54:44;;;;;;;14.10;10.35;;;12.80;99.90;;;12.90;100.00;100121.28;5055527;28;20047;-78
2023/05/10 07:57:10;;;;;;;13.32;10.30;;;12.90;99.90;;;13.01;100.00;100114.09;5070541;28;20035;-77
2023/05/10 07:59:36;;;;;;;12.70;10.93;;;13.00;99.90;;;13.14;100.00;100128.53;5056265;28;20033;-76
2023/05/10 08:02:02;;;;;;;16.15;11.18;;;13.10;99.90;;;13.28;100.00;100129.06;5059463;28;20045;-77
2023/05/10 08:04:27;;;;;;;13.65;10.43;;;13.30;99.90;;;13.64;100.00;100125.03;5071655;28;20062;-76
2023/05/10 08:06:53;;;;;;;13.27;10.25;;;13.30;99.90;;;13.57;100.00;100140.81;5055338;28;20046;-76
2023/05/10 08:09:23;;;;;;;13.45;9.93;;;13.30;99.90;;;13.60;100.00;100140.31;5054244;28;20419;-78
2023/05/10 08:11:50;;;;;;;14.30;10.13;;;13.30;99.90;;;13.70;100.00;100145.13;5071573;28;20475;-75
2023/05/10 08:14:16;;;;;;;14.40;10.55;;;13.40;99.90;;;13.58;100.00;100147.97;5071053;28;20029;-76
2023/05/10 08:16:42;;;;;;;12.95;10.10;;;13.40;99.90;;;13.58;100.00;100155.34;5054906;28;20131;-76
2023/05/10 08:19:08;;;;;;;15.95;11.65;;;13.40;99.90;;;13.61;100.00;100158.41;5054477;28;20029;-75
2023/05/10 08:21:34;;;;;;;13.13;9.75;;;13.40;99.90;;;13.61;100.00;100166.66;5054492;28;20388;-75
2023/05/10 08:23:59;;;;;;;13.43;9.43;;;13.30;99.90;;;13.45;100.00;100165.56;5054792;28;20544;-75
2023/05/10 08:26:25;;;;;;;12.32;9.43;;;13.30;99.90;;;13.38;100.00;100153.88;5049595;28;20033;-75
2023/05/10 08:28:51;;;;;;;11.70;8.45;;;13.30;99.90;;;13.30;100.00;100154.28;5057221;28;20049;-77
2023/05/10 08:31:17;;;;;;;10.60;7.75;;;13.30;99.90;;;13.12;100.00;100172.59;5061421;28;20041;-76
2023/05/10 08:33:43;;;;;;;8.88;6.45;;;13.30;99.90;;;13.23;100.00;100171.72;5053333;28;20043;-75
2023/05/10 08:36:09;;;;;;;7.05;5.32;;;13.30;99.90;;;13.29;100.00;100169.91;5054982;28;20037;-75
2023/05/10 08:38:35;;;;;;;8.20;5.30;;;13.30;99.90;;;13.05;100.00;100170.03;5054316;28;20039;-76
2023/05/10 08:41:02;;;;;;;9.40;6.63;;;13.30;99.90;;;13.24;100.00;100169.78;5075049;28;20037;-75
2023/05/10 08:43:29;;;;;;;7.93;4.68;;;13.30;99.90;;;13.26;100.00;100172.31;5066544;28;20068;-75
2023/05/10 08:45:58;;;;;;;6.70;3.63;;;13.40;99.90;;;13.24;100.00;100173.38;5066292;28;20047;-75
2023/05/10 08:48:24;;;;;;;6.40;4.00;;;13.40;99.90;;;13.31;100.00;100162.28;5060653;28;20029;-74
2023/05/10 08:50:56;;;;;;;7.47;3.88;;;13.40;99.90;;;13.23;100.00;100168.97;5053792;28;20090;-73
2023/05/10 08:53:27;;;;;;;6.18;3.25;;;13.50;99.90;;;13.49;100.00;100174.94;5057653;28;20036;-75
2023/05/10 08:55:53;;;;;;;3.95;2.88;;;13.60;99.90;;;13.56;100.00;100180.25;5057743;28;20041;-75
2023/05/10 08:58:20;;;;;;;6.57;2.90;;;13.60;99.90;;;13.63;100.00;100189.16;5073440;28;20060;-75
2023/05/10 09:00:48;;;;;;;4.68;2.65;;;13.70;99.90;;;13.77;100.00;100203.34;5067498;28;20076;-76
2023/05/10 09:03:14;;;;;;;4.70;2.60;;;13.80;99.90;;;13.62;100.00;100186.66;5066197;28;20112;-76
2023/05/10 09:05:41;;;;;;;4.78;2.40;;;13.80;99.90;;;13.81;100.00;100203.69;5060835;28;20037;-76
2023/05/10 09:08:08;;;;;;;4.82;2.95;;;13.80;99.90;;;14.07;100.00;100224.13;5065561;28;20029;-77
2023/05/10 09:10:35;;;;;;;5.05;2.40;;;13.80;99.90;;;13.90;100.00;100235.09;5053538;28;20063;-75
2023/05/10 09:13:02;;;;;;;4.18;2.72;;;13.80;99.90;;;14.21;100.00;100235.56;5059827;28;20044;-75
2023/05/10 09:15:28;;;;;;;4.28;2.80;;;13.70;99.90;;;13.93;100.00;100231.84;5058792;28;20064;-75
2023/05/10 09:17:54;;;;;;;4.57;3.10;;;13.70;99.90;;;14.15;100.00;100244.81;5052725;28;20547;-74
2023/05/10 09:20:20;;;;;;;4.70;3.35;;;13.70;99.90;;;14.19;100.00;100245.97;5055934;28;20051;-75
2023/05/10 09:22:47;;;;;;;5.32;3.70;;;13.80;99.90;;;14.10;100.00;100225.53;5085025;28;20558;-75
2023/05/10 09:25:16;;;;;;;4.85;3.78;;;13.90;99.90;;;14.14;100.00;100256.88;5053987;28;21901;-75
2023/05/10 09:27:46;;;;;;;4.53;3.53;;;14.00;99.90;;;14.29;100.00;100256.28;5055340;28;20037;-76
2023/05/10 09:30:22;;;;;;;4.75;3.17;;;14.10;99.90;;;14.21;100.00;100257.53;5052557;28;20396;-74
2023/05/10 09:32:49;;;;;;;5.07;2.80;;;14.10;99.90;;;14.30;100.00;100262.56;5051511;28;20040;-75
2023/05/10 09:35:23;;;;;;;4.43;3.13;;;14.10;99.90;;;14.18;100.00;100268.16;5065503;28;20396;-75
2023/05/10 09:37:53;;;;;;;6.38;3.03;;;14.10;99.90;;;14.36;100.00;100272.56;5061550;28;20072;-76
2023/05/10 09:40:27;;;;;;;4.15;2.60;;;14.10;99.90;;;13.99;100.00;100273.06;5056173;28;20041;-74
2023/05/10 09:43:06;;;;;;;4.05;2.50;;;14.10;99.90;;;13.79;100.00;100260.66;5076958;28;20044;-75
2023/05/10 09:45:34;;;;;;;4.30;2.90;;;13.90;99.90;;;14.18;100.00;100279.97;5062880;28;20423;-75
2023/05/10 09:48:02;;;;;;;;;;;13.90;99.90;;;14.09;100.00;100279.56;5065400;28;20369;-76
2023/05/10 09:50:29;;;;;;;4.40;2.95;;;14.00;99.90;;;14.15;100.00;100285.97;5066071;28;19917;-76
2023/05/10 09:53:03;;;;;;;3.78;2.75;;;14.00;99.90;;;14.32;100.00;100287.84;5058557;28;20040;-76
2023/05/10 09:55:44;;;;;;;5.20;2.83;;;14.10;99.90;;;14.23;100.00;100292.94;5066112;28;20072;-75
2023/05/10 09:58:11;;;;;;;4.10;2.60;;;14.10;99.90;;;14.33;100.00;100290.34;5067911;28;20128;-77
2023/05/10 10:00:43;;;;;;;5.00;2.60;;;14.10;99.90;;;14.36;100.00;100300.00;5068744;28;20033;-75
2023/05/10 10:03:15;;;;;;;4.55;2.40;;;14.20;99.90;;;14.34;100.00;100292.00;5056885;28;20029;-76
2023/05/10 10:05:43;;;;;;;3.92;2.60;;;14.30;99.90;;;14.57;100.00;100300.28;5051824;28;20055;-76
2023/05/10 10:08:09;;;;;;;3.55;2.35;;;14.30;99.90;;;14.55;100.00;100302.47;5055017;28;20065;-77
2023/05/10 10:10:35;;;;;;;4.20;2.67;;;14.40;99.90;;;14.78;100.00;100305.03;5061229;28;20037;-76